sensor_id;sensor_type;location;lat;lon;timestamp;P1;durP1;ratioP1;P2;durP2;ratioP2
34019;SDS011;20895;51.034;3.742;2023-11-22T00:00:04;16.52;;;13.43;;
34019;SDS011;20895;51.034;3.742;2023-11-22T00:02:30;16.17;;;13.63;;
34019;SDS011;20895;51.034;3.742;2023-11-22T00:04:56;19.92;;;13.85;;
34019;SDS011;20895;51.034;3.742;2023-11-22T00:07:21;16.90;;;13.63;;
34019;SDS011;20895;51.034;3.742;2023-11-22T00:09:46;19.05;;;13.18;;
34019;SDS011;20895;51.034;3.742;2023-11-22T00:12:12;17.00;;;13.80;;
34019;SDS011;20895;51.034;3.742;2023-11-22T00:14:37;16.85;;;13.68;;
34019;SDS011;20895;51.034;3.742;2023-11-22T00:17:03;16.60;;;13.63;;
34019;SDS011;20895;51.034;3.742;2023-11-22T00:19:29;18.60;;;12.88;;
34019;SDS011;20895;51.034;3.742;2023-11-22T00:21:55;17.90;;;13.85;;
34019;SDS011;20895;51.034;3.742;2023-11-22T00:24:20;16.35;;;13.77;;
34019;SDS011;20895;51.034;3.742;2023-11-22T00:26:46;19.15;;;13.80;;
34019;SDS011;20895;51.034;3.742;2023-11-22T00:29:11;17.13;;;13.13;;
34019;SDS011;20895;51.034;3.742;2023-11-22T00:31:40;18.25;;;13.10;;
34019;SDS011;20895;51.034;3.742;2023-11-22T00:34:05;17.88;;;13.80;;
34019;SDS011;20895;51.034;3.742;2023-11-22T00:36:30;16.20;;;13.07;;
34019;SDS011;20895;51.034;3.742;2023-11-22T00:38:56;19.10;;;14.40;;
34019;SDS011;20895;51.034;3.742;2023-11-22T00:41:21;18.13;;;14.75;;
34019;SDS011;20895;51.034;3.742;2023-11-22T00:43:46;19.00;;;14.30;;
34019;SDS011;20895;51.034;3.742;2023-11-22T00:46:11;19.42;;;14.40;;
34019;SDS011;20895;51.034;3.742;2023-11-22T00:48:36;18.58;;;15.38;;
34019;SDS011;20895;51.034;3.742;2023-11-22T00:51:02;17.92;;;13.70;;
34019;SDS011;20895;51.034;3.742;2023-11-22T00:53:33;18.65;;;14.70;;
34019;SDS011;20895;51.034;3.742;2023-11-22T00:55:58;17.35;;;14.65;;
34019;SDS011;20895;51.034;3.742;2023-11-22T00:58:23;19.50;;;13.85;;
34019;SDS011;20895;51.034;3.742;2023-11-22T01:00:49;19.15;;;14.25;;
34019;SDS011;20895;51.034;3.742;2023-11-22T01:03:14;18.80;;;14.75;;
34019;SDS011;20895;51.034;3.742;2023-11-22T01:05:39;19.00;;;14.65;;
34019;SDS011;20895;51.034;3.742;2023-11-22T01:08:05;20.63;;;15.00;;
34019;SDS011;20895;51.034;3.742;2023-11-22T01:10:30;21.70;;;15.50;;
34019;SDS011;20895;51.034;3.742;2023-11-22T01:12:55;20.38;;;15.75;;
34019;SDS011;20895;51.034;3.742;2023-11-22T01:15:20;22.55;;;14.90;;
34019;SDS011;20895;51.034;3.742;2023-11-22T01:17:46;21.35;;;14.73;;
34019;SDS011;20895;51.034;3.742;2023-11-22T01:20:11;18.33;;;14.50;;
34019;SDS011;20895;51.034;3.742;2023-11-22T01:22:37;22.17;;;15.15;;
34019;SDS011;20895;51.034;3.742;2023-11-22T01:25:03;23.50;;;16.40;;
34019;SDS011;20895;51.034;3.742;2023-11-22T01:27:29;19.83;;;15.80;;
34019;SDS011;20895;51.034;3.742;2023-11-22T01:29:54;18.33;;;14.40;;
34019;SDS011;20895;51.034;3.742;2023-11-22T01:32:20;23.50;;;15.05;;
34019;SDS011;20895;51.034;3.742;2023-11-22T01:34:46;20.05;;;15.70;;
34019;SDS011;20895;51.034;3.742;2023-11-22T01:37:11;18.63;;;14.85;;
34019;SDS011;20895;51.034;3.742;2023-11-22T01:39:39;20.08;;;15.93;;
34019;SDS011;20895;51.034;3.742;2023-11-22T01:42:05;19.77;;;14.60;;
34019;SDS011;20895;51.034;3.742;2023-11-22T01:44:31;23.10;;;15.68;;
34019;SDS011;20895;51.034;3.742;2023-11-22T01:46:57;21.88;;;14.93;;
34019;SDS011;20895;51.034;3.742;2023-11-22T01:49:22;21.90;;;15.95;;
34019;SDS011;20895;51.034;3.742;2023-11-22T01:51:48;17.60;;;14.73;;
34019;SDS011;20895;51.034;3.742;2023-11-22T01:54:14;20.17;;;15.50;;
34019;SDS011;20895;51.034;3.742;2023-11-22T01:56:40;18.50;;;14.80;;
34019;SDS011;20895;51.034;3.742;2023-11-22T01:59:05;19.48;;;16.10;;
34019;SDS011;20895;51.034;3.742;2023-11-22T02:01:30;19.70;;;15.07;;
34019;SDS011;20895;51.034;3.742;2023-11-22T02:03:56;23.35;;;15.18;;
34019;SDS011;20895;51.034;3.742;2023-11-22T02:06:24;20.42;;;14.73;;
34019;SDS011;20895;51.034;3.742;2023-11-22T02:08:50;20.85;;;15.70;;
34019;SDS011;20895;51.034;3.742;2023-11-22T02:11:19;20.08;;;15.52;;
34019;SDS011;20895;51.034;3.742;2023-11-22T02:13:50;22.60;;;16.42;;
34019;SDS011;20895;51.034;3.742;2023-11-22T02:16:16;22.60;;;15.52;;
34019;SDS011;20895;51.034;3.742;2023-11-22T02:18:43;21.90;;;16.42;;
34019;SDS011;20895;51.034;3.742;2023-11-22T02:21:08;20.88;;;16.48;;
34019;SDS011;20895;51.034;3.742;2023-11-22T02:23:33;23.33;;;16.80;;
34019;SDS011;20895;51.034;3.742;2023-11-22T02:25:59;24.45;;;16.83;;
34019;SDS011;20895;51.034;3.742;2023-11-22T02:28:26;22.92;;;17.38;;
34019;SDS011;20895;51.034;3.742;2023-11-22T02:30:52;20.25;;;15.80;;
34019;SDS011;20895;51.034;3.742;2023-11-22T02:33:17;23.83;;;16.45;;
34019;SDS011;20895;51.034;3.742;2023-11-22T02:35:42;24.20;;;16.45;;
34019;SDS011;20895;51.034;3.742;2023-11-22T02:38:07;20.17;;;16.52;;
34019;SDS011;20895;51.034;3.742;2023-11-22T02:40:33;23.80;;;18.40;;
34019;SDS011;20895;51.034;3.742;2023-11-22T02:42:58;20.30;;;16.48;;
34019;SDS011;20895;51.034;3.742;2023-11-22T02:45:27;23.88;;;17.92;;
34019;SDS011;20895;51.034;3.742;2023-11-22T02:47:53;27.85;;;18.70;;
34019;SDS011;20895;51.034;3.742;2023-11-22T02:50:18;27.27;;;18.60;;
34019;SDS011;20895;51.034;3.742;2023-11-22T02:52:43;26.15;;;18.60;;
34019;SDS011;20895;51.034;3.742;2023-11-22T02:55:09;26.05;;;19.38;;
34019;SDS011;20895;51.034;3.742;2023-11-22T02:57:38;31.77;;;21.23;;
34019;SDS011;20895;51.034;3.742;2023-11-22T03:00:05;25.05;;;20.23;;
34019;SDS011;20895;51.034;3.742;2023-11-22T03:02:30;24.02;;;18.17;;
34019;SDS011;20895;51.034;3.742;2023-11-22T03:04:57;25.08;;;18.65;;
34019;SDS011;20895;51.034;3.742;2023-11-22T03:07:23;25.45;;;18.92;;
34019;SDS011;20895;51.034;3.742;2023-11-22T03:09:48;23.95;;;18.88;;
34019;SDS011;20895;51.034;3.742;2023-11-22T03:12:13;26.27;;;19.63;;
34019;SDS011;20895;51.034;3.742;2023-11-22T03:14:39;25.33;;;20.02;;
34019;SDS011;20895;51.034;3.742;2023-11-22T03:17:05;24.98;;;20.27;;
34019;SDS011;20895;51.034;3.742;2023-11-22T03:19:30;26.98;;;20.08;;
34019;SDS011;20895;51.034;3.742;2023-11-22T03:21:59;24.23;;;19.67;;
34019;SDS011;20895;51.034;3.742;2023-11-22T03:24:24;22.48;;;17.73;;
34019;SDS011;20895;51.034;3.742;2023-11-22T03:26:49;23.13;;;18.45;;
34019;SDS011;20895;51.034;3.742;2023-11-22T03:29:15;22.77;;;18.13;;
34019;SDS011;20895;51.034;3.742;2023-11-22T03:31:43;25.40;;;18.08;;
34019;SDS011;20895;51.034;3.742;2023-11-22T03:34:08;23.40;;;18.33;;
34019;SDS011;20895;51.034;3.742;2023-11-22T03:36:34;23.00;;;17.63;;
34019;SDS011;20895;51.034;3.742;2023-11-22T03:38:59;23.00;;;17.88;;
34019;SDS011;20895;51.034;3.742;2023-11-22T03:41:24;20.90;;;17.33;;
34019;SDS011;20895;51.034;3.742;2023-11-22T03:43:49;21.70;;;17.13;;
34019;SDS011;20895;51.034;3.742;2023-11-22T03:46:15;24.67;;;16.98;;
34019;SDS011;20895;51.034;3.742;2023-11-22T03:48:40;19.98;;;16.10;;
34019;SDS011;20895;51.034;3.742;2023-11-22T03:51:05;19.77;;;15.63;;
34019;SDS011;20895;51.034;3.742;2023-11-22T03:53:30;23.25;;;16.48;;
34019;SDS011;20895;51.034;3.742;2023-11-22T03:55:57;22.80;;;17.02;;
34019;SDS011;20895;51.034;3.742;2023-11-22T03:58:22;21.70;;;16.83;;
34019;SDS011;20895;51.034;3.742;2023-11-22T04:00:47;21.88;;;17.08;;
34019;SDS011;20895;51.034;3.742;2023-11-22T04:03:12;20.52;;;15.93;;
34019;SDS011;20895;51.034;3.742;2023-11-22T04:05:38;19.33;;;16.65;;
34019;SDS011;20895;51.034;3.742;2023-11-22T04:08:03;19.42;;;15.57;;
34019;SDS011;20895;51.034;3.742;2023-11-22T04:10:28;23.45;;;15.55;;
34019;SDS011;20895;51.034;3.742;2023-11-22T04:12:54;21.73;;;15.68;;
34019;SDS011;20895;51.034;3.742;2023-11-22T04:15:19;22.35;;;15.25;;
34019;SDS011;20895;51.034;3.742;2023-11-22T04:17:44;17.08;;;14.10;;
34019;SDS011;20895;51.034;3.742;2023-11-22T04:20:10;18.35;;;15.05;;
34019;SDS011;20895;51.034;3.742;2023-11-22T04:22:39;20.42;;;15.32;;
34019;SDS011;20895;51.034;3.742;2023-11-22T04:25:05;21.48;;;15.35;;
34019;SDS011;20895;51.034;3.742;2023-11-22T04:27:30;20.23;;;16.25;;
34019;SDS011;20895;51.034;3.742;2023-11-22T04:29:56;20.10;;;16.52;;
34019;SDS011;20895;51.034;3.742;2023-11-22T04:32:21;19.67;;;15.40;;
34019;SDS011;20895;51.034;3.742;2023-11-22T04:34:47;20.45;;;15.65;;
34019;SDS011;20895;51.034;3.742;2023-11-22T04:37:12;20.70;;;15.50;;
34019;SDS011;20895;51.034;3.742;2023-11-22T04:39:37;20.08;;;16.38;;
34019;SDS011;20895;51.034;3.742;2023-11-22T04:42:02;19.52;;;15.77;;
34019;SDS011;20895;51.034;3.742;2023-11-22T04:44:28;19.55;;;15.07;;
34019;SDS011;20895;51.034;3.742;2023-11-22T04:46:53;18.95;;;14.57;;
34019;SDS011;20895;51.034;3.742;2023-11-22T04:49:19;16.55;;;14.60;;
34019;SDS011;20895;51.034;3.742;2023-11-22T04:51:44;19.02;;;15.48;;
34019;SDS011;20895;51.034;3.742;2023-11-22T04:54:10;26.05;;;16.67;;
34019;SDS011;20895;51.034;3.742;2023-11-22T04:56:36;24.23;;;16.10;;
34019;SDS011;20895;51.034;3.742;2023-11-22T04:59:01;19.85;;;15.82;;
34019;SDS011;20895;51.034;3.742;2023-11-22T05:01:33;20.80;;;15.20;;
34019;SDS011;20895;51.034;3.742;2023-11-22T05:03:58;23.08;;;16.80;;
34019;SDS011;20895;51.034;3.742;2023-11-22T05:06:24;22.30;;;16.45;;
34019;SDS011;20895;51.034;3.742;2023-11-22T05:08:49;19.98;;;15.60;;
34019;SDS011;20895;51.034;3.742;2023-11-22T05:11:14;19.48;;;15.02;;
34019;SDS011;20895;51.034;3.742;2023-11-22T05:13:41;28.23;;;20.77;;
34019;SDS011;20895;51.034;3.742;2023-11-22T05:16:08;22.55;;;17.45;;
34019;SDS011;20895;51.034;3.742;2023-11-22T05:18:33;21.25;;;16.35;;
34019;SDS011;20895;51.034;3.742;2023-11-22T05:20:58;22.60;;;15.85;;
34019;SDS011;20895;51.034;3.742;2023-11-22T05:23:23;21.25;;;15.63;;
34019;SDS011;20895;51.034;3.742;2023-11-22T05:25:49;23.00;;;17.17;;
34019;SDS011;20895;51.034;3.742;2023-11-22T05:28:14;19.85;;;16.27;;
34019;SDS011;20895;51.034;3.742;2023-11-22T05:30:39;20.08;;;15.80;;
34019;SDS011;20895;51.034;3.742;2023-11-22T05:33:04;22.25;;;16.40;;
34019;SDS011;20895;51.034;3.742;2023-11-22T05:35:30;21.17;;;17.00;;
34019;SDS011;20895;51.034;3.742;2023-11-22T05:37:55;22.38;;;16.13;;
34019;SDS011;20895;51.034;3.742;2023-11-22T05:40:22;22.65;;;16.88;;
34019;SDS011;20895;51.034;3.742;2023-11-22T05:42:47;21.38;;;16.15;;
34019;SDS011;20895;51.034;3.742;2023-11-22T05:45:12;24.90;;;16.10;;
34019;SDS011;20895;51.034;3.742;2023-11-22T05:47:38;26.13;;;17.70;;
34019;SDS011;20895;51.034;3.742;2023-11-22T05:50:03;23.20;;;16.33;;
34019;SDS011;20895;51.034;3.742;2023-11-22T05:52:29;23.65;;;17.17;;
34019;SDS011;20895;51.034;3.742;2023-11-22T05:54:54;27.98;;;18.65;;
34019;SDS011;20895;51.034;3.742;2023-11-22T05:57:19;23.15;;;17.55;;
34019;SDS011;20895;51.034;3.742;2023-11-22T05:59:44;24.33;;;16.70;;
34019;SDS011;20895;51.034;3.742;2023-11-22T06:02:11;24.88;;;18.75;;
34019;SDS011;20895;51.034;3.742;2023-11-22T06:04:39;24.67;;;17.85;;
34019;SDS011;20895;51.034;3.742;2023-11-22T06:07:04;19.67;;;15.55;;
34019;SDS011;20895;51.034;3.742;2023-11-22T06:09:30;26.98;;;18.17;;
34019;SDS011;20895;51.034;3.742;2023-11-22T06:11:55;22.95;;;17.70;;
34019;SDS011;20895;51.034;3.742;2023-11-22T06:14:20;26.80;;;17.70;;
34019;SDS011;20895;51.034;3.742;2023-11-22T06:16:46;26.08;;;18.98;;
34019;SDS011;20895;51.034;3.742;2023-11-22T06:19:12;24.42;;;18.55;;
34019;SDS011;20895;51.034;3.742;2023-11-22T06:21:37;23.30;;;18.20;;
34019;SDS011;20895;51.034;3.742;2023-11-22T06:24:03;27.65;;;18.27;;
34019;SDS011;20895;51.034;3.742;2023-11-22T06:26:31;28.25;;;19.38;;
34019;SDS011;20895;51.034;3.742;2023-11-22T06:28:56;24.98;;;18.35;;
34019;SDS011;20895;51.034;3.742;2023-11-22T06:31:21;24.23;;;18.10;;
34019;SDS011;20895;51.034;3.742;2023-11-22T06:33:47;28.55;;;18.23;;
34019;SDS011;20895;51.034;3.742;2023-11-22T06:36:16;23.05;;;17.23;;
34019;SDS011;20895;51.034;3.742;2023-11-22T06:38:41;30.25;;;19.05;;
34019;SDS011;20895;51.034;3.742;2023-11-22T06:41:06;30.77;;;18.85;;
34019;SDS011;20895;51.034;3.742;2023-11-22T06:43:31;25.15;;;17.45;;
34019;SDS011;20895;51.034;3.742;2023-11-22T06:45:57;24.60;;;18.52;;
34019;SDS011;20895;51.034;3.742;2023-11-22T06:48:22;22.25;;;17.05;;
34019;SDS011;20895;51.034;3.742;2023-11-22T06:50:47;23.52;;;17.65;;
34019;SDS011;20895;51.034;3.742;2023-11-22T06:53:12;25.42;;;18.00;;
34019;SDS011;20895;51.034;3.742;2023-11-22T06:55:38;24.67;;;18.80;;
34019;SDS011;20895;51.034;3.742;2023-11-22T06:58:03;23.13;;;17.83;;
34019;SDS011;20895;51.034;3.742;2023-11-22T07:00:30;23.48;;;17.55;;
34019;SDS011;20895;51.034;3.742;2023-11-22T07:02:55;23.08;;;16.60;;
34019;SDS011;20895;51.034;3.742;2023-11-22T07:05:21;27.90;;;18.30;;
34019;SDS011;20895;51.034;3.742;2023-11-22T07:07:46;24.27;;;18.20;;
34019;SDS011;20895;51.034;3.742;2023-11-22T07:10:13;23.73;;;17.48;;
34019;SDS011;20895;51.034;3.742;2023-11-22T07:12:39;26.05;;;16.67;;
34019;SDS011;20895;51.034;3.742;2023-11-22T07:15:05;22.60;;;16.85;;
34019;SDS011;20895;51.034;3.742;2023-11-22T07:17:34;24.27;;;17.25;;
34019;SDS011;20895;51.034;3.742;2023-11-22T07:19:59;29.90;;;18.50;;
34019;SDS011;20895;51.034;3.742;2023-11-22T07:22:25;25.05;;;17.38;;
34019;SDS011;20895;51.034;3.742;2023-11-22T07:24:51;54.08;;;19.77;;
34019;SDS011;20895;51.034;3.742;2023-11-22T07:27:17;24.00;;;15.93;;
34019;SDS011;20895;51.034;3.742;2023-11-22T07:29:43;35.13;;;19.52;;
34019;SDS011;20895;51.034;3.742;2023-11-22T07:32:09;30.88;;;18.77;;
34019;SDS011;20895;51.034;3.742;2023-11-22T07:34:35;25.65;;;17.58;;
34019;SDS011;20895;51.034;3.742;2023-11-22T07:37:01;31.50;;;19.60;;
34019;SDS011;20895;51.034;3.742;2023-11-22T07:39:27;24.27;;;18.50;;
34019;SDS011;20895;51.034;3.742;2023-11-22T07:41:52;26.65;;;17.77;;
34019;SDS011;20895;51.034;3.742;2023-11-22T07:44:18;23.45;;;18.20;;
34019;SDS011;20895;51.034;3.742;2023-11-22T07:46:43;26.63;;;19.33;;
34019;SDS011;20895;51.034;3.742;2023-11-22T07:49:09;23.67;;;17.92;;
34019;SDS011;20895;51.034;3.742;2023-11-22T07:51:34;25.60;;;17.85;;
34019;SDS011;20895;51.034;3.742;2023-11-22T07:54:02;23.58;;;17.92;;
34019;SDS011;20895;51.034;3.742;2023-11-22T07:56:28;21.40;;;17.40;;
34019;SDS011;20895;51.034;3.742;2023-11-22T07:58:54;25.77;;;18.27;;
34019;SDS011;20895;51.034;3.742;2023-11-22T08:01:19;23.58;;;18.38;;
34019;SDS011;20895;51.034;3.742;2023-11-22T08:03:44;23.80;;;17.30;;
34019;SDS011;20895;51.034;3.742;2023-11-22T08:06:11;23.83;;;18.02;;
34019;SDS011;20895;51.034;3.742;2023-11-22T08:08:36;23.75;;;19.15;;
34019;SDS011;20895;51.034;3.742;2023-11-22T08:11:05;27.50;;;20.30;;
34019;SDS011;20895;51.034;3.742;2023-11-22T08:13:39;26.75;;;20.88;;
34019;SDS011;20895;51.034;3.742;2023-11-22T08:16:05;28.10;;;21.05;;
34019;SDS011;20895;51.034;3.742;2023-11-22T08:18:30;29.75;;;20.80;;
34019;SDS011;20895;51.034;3.742;2023-11-22T08:20:55;30.20;;;21.67;;
34019;SDS011;20895;51.034;3.742;2023-11-22T08:23:20;27.23;;;20.38;;
34019;SDS011;20895;51.034;3.742;2023-11-22T08:25:46;34.35;;;23.20;;
34019;SDS011;20895;51.034;3.742;2023-11-22T08:28:11;25.92;;;20.80;;
34019;SDS011;20895;51.034;3.742;2023-11-22T08:30:36;32.88;;;21.08;;
34019;SDS011;20895;51.034;3.742;2023-11-22T08:33:02;28.05;;;21.65;;
34019;SDS011;20895;51.034;3.742;2023-11-22T08:35:27;28.20;;;20.60;;
34019;SDS011;20895;51.034;3.742;2023-11-22T08:37:52;28.02;;;22.48;;
34019;SDS011;20895;51.034;3.742;2023-11-22T08:40:18;25.48;;;22.23;;
34019;SDS011;20895;51.034;3.742;2023-11-22T08:42:46;26.73;;;20.58;;
34019;SDS011;20895;51.034;3.742;2023-11-22T08:45:11;28.45;;;20.67;;
34019;SDS011;20895;51.034;3.742;2023-11-22T08:47:37;24.75;;;20.17;;
34019;SDS011;20895;51.034;3.742;2023-11-22T08:50:03;27.67;;;21.15;;
34019;SDS011;20895;51.034;3.742;2023-11-22T08:52:28;27.02;;;21.35;;
34019;SDS011;20895;51.034;3.742;2023-11-22T08:54:55;29.95;;;21.02;;
34019;SDS011;20895;51.034;3.742;2023-11-22T08:57:21;22.02;;;18.77;;
34019;SDS011;20895;51.034;3.742;2023-11-22T08:59:46;24.52;;;19.30;;
34019;SDS011;20895;51.034;3.742;2023-11-22T09:02:12;23.88;;;18.98;;
34019;SDS011;20895;51.034;3.742;2023-11-22T09:04:38;25.15;;;18.65;;
34019;SDS011;20895;51.034;3.742;2023-11-22T09:07:06;24.70;;;18.98;;
34019;SDS011;20895;51.034;3.742;2023-11-22T09:09:31;25.60;;;18.50;;
34019;SDS011;20895;51.034;3.742;2023-11-22T09:11:57;25.60;;;19.45;;
34019;SDS011;20895;51.034;3.742;2023-11-22T09:14:23;21.13;;;17.05;;
34019;SDS011;20895;51.034;3.742;2023-11-22T09:16:49;21.38;;;17.95;;
34019;SDS011;20895;51.034;3.742;2023-11-22T09:19:19;22.25;;;18.42;;
34019;SDS011;20895;51.034;3.742;2023-11-22T09:21:44;24.83;;;17.88;;
34019;SDS011;20895;51.034;3.742;2023-11-22T09:24:09;22.80;;;18.85;;
34019;SDS011;20895;51.034;3.742;2023-11-22T09:26:35;22.23;;;17.65;;
34019;SDS011;20895;51.034;3.742;2023-11-22T09:29:01;23.15;;;17.73;;
34019;SDS011;20895;51.034;3.742;2023-11-22T09:31:26;20.58;;;17.70;;
34019;SDS011;20895;51.034;3.742;2023-11-22T09:33:51;22.92;;;17.80;;
34019;SDS011;20895;51.034;3.742;2023-11-22T09:36:17;21.10;;;16.63;;
34019;SDS011;20895;51.034;3.742;2023-11-22T09:38:43;24.13;;;17.48;;
34019;SDS011;20895;51.034;3.742;2023-11-22T09:41:08;22.30;;;17.30;;
34019;SDS011;20895;51.034;3.742;2023-11-22T09:43:34;23.95;;;18.65;;
34019;SDS011;20895;51.034;3.742;2023-11-22T09:45:59;19.63;;;17.52;;
34019;SDS011;20895;51.034;3.742;2023-11-22T09:48:25;21.15;;;17.63;;
34019;SDS011;20895;51.034;3.742;2023-11-22T09:56:08;21.83;;;16.77;;
34019;SDS011;20895;51.034;3.742;2023-11-22T09:58:35;22.35;;;17.20;;
34019;SDS011;20895;51.034;3.742;2023-11-22T10:01:01;22.40;;;18.33;;
34019;SDS011;20895;51.034;3.742;2023-11-22T10:03:27;20.85;;;17.20;;
34019;SDS011;20895;51.034;3.742;2023-11-22T10:05:56;26.95;;;16.70;;
34019;SDS011;20895;51.034;3.742;2023-11-22T10:08:23;25.67;;;18.10;;
34019;SDS011;20895;51.034;3.742;2023-11-22T10:10:49;23.80;;;17.38;;
34019;SDS011;20895;51.034;3.742;2023-11-22T10:13:16;20.50;;;16.67;;
34019;SDS011;20895;51.034;3.742;2023-11-22T10:15:41;19.35;;;15.65;;
34019;SDS011;20895;51.034;3.742;2023-11-22T10:18:06;20.88;;;16.73;;
34019;SDS011;20895;51.034;3.742;2023-11-22T10:20:39;21.65;;;17.20;;
34019;SDS011;20895;51.034;3.742;2023-11-22T10:23:08;20.38;;;17.40;;
34019;SDS011;20895;51.034;3.742;2023-11-22T10:25:33;20.48;;;16.45;;
34019;SDS011;20895;51.034;3.742;2023-11-22T10:27:59;21.55;;;17.90;;
34019;SDS011;20895;51.034;3.742;2023-11-22T10:30:24;20.88;;;16.75;;
34019;SDS011;20895;51.034;3.742;2023-11-22T10:32:51;20.60;;;17.02;;
34019;SDS011;20895;51.034;3.742;2023-11-22T10:35:18;19.85;;;15.95;;
34019;SDS011;20895;51.034;3.742;2023-11-22T10:37:47;22.25;;;17.45;;
34019;SDS011;20895;51.034;3.742;2023-11-22T10:40:13;22.63;;;17.60;;
34019;SDS011;20895;51.034;3.742;2023-11-22T10:42:40;26.55;;;15.52;;
34019;SDS011;20895;51.034;3.742;2023-11-22T10:45:05;24.23;;;18.60;;
34019;SDS011;20895;51.034;3.742;2023-11-22T10:47:32;24.73;;;18.25;;
34019;SDS011;20895;51.034;3.742;2023-11-22T10:50:00;22.73;;;18.38;;
34019;SDS011;20895;51.034;3.742;2023-11-22T10:52:26;23.70;;;17.83;;
34019;SDS011;20895;51.034;3.742;2023-11-22T10:54:53;23.13;;;18.92;;
34019;SDS011;20895;51.034;3.742;2023-11-22T10:57:20;26.30;;;19.35;;
34019;SDS011;20895;51.034;3.742;2023-11-22T10:59:49;27.30;;;20.63;;
34019;SDS011;20895;51.034;3.742;2023-11-22T11:02:17;27.35;;;22.27;;
34019;SDS011;20895;51.034;3.742;2023-11-22T11:04:45;30.30;;;22.48;;
34019;SDS011;20895;51.034;3.742;2023-11-22T11:07:12;29.90;;;22.92;;
34019;SDS011;20895;51.034;3.742;2023-11-22T11:09:40;27.48;;;21.15;;
34019;SDS011;20895;51.034;3.742;2023-11-22T11:12:06;28.80;;;21.55;;
34019;SDS011;20895;51.034;3.742;2023-11-22T11:14:31;28.13;;;21.52;;
34019;SDS011;20895;51.034;3.742;2023-11-22T11:16:57;27.15;;;20.67;;
34019;SDS011;20895;51.034;3.742;2023-11-22T11:19:23;30.27;;;24.10;;
34019;SDS011;20895;51.034;3.742;2023-11-22T11:21:50;29.80;;;21.48;;
34019;SDS011;20895;51.034;3.742;2023-11-22T11:24:16;29.00;;;22.45;;
34019;SDS011;20895;51.034;3.742;2023-11-22T11:26:41;31.92;;;22.83;;
34019;SDS011;20895;51.034;3.742;2023-11-22T11:29:28;27.20;;;19.67;;
34019;SDS011;20895;51.034;3.742;2023-11-22T11:31:54;28.05;;;19.33;;
34019;SDS011;20895;51.034;3.742;2023-11-22T11:34:19;29.88;;;20.58;;
34019;SDS011;20895;51.034;3.742;2023-11-22T11:36:48;28.27;;;18.52;;
34019;SDS011;20895;51.034;3.742;2023-11-22T11:39:18;27.65;;;18.15;;
34019;SDS011;20895;51.034;3.742;2023-11-22T11:41:49;23.88;;;17.95;;
34019;SDS011;20895;51.034;3.742;2023-11-22T11:44:14;22.70;;;18.17;;
34019;SDS011;20895;51.034;3.742;2023-11-22T11:46:41;23.88;;;17.10;;
34019;SDS011;20895;51.034;3.742;2023-11-22T11:49:06;24.42;;;17.10;;
34019;SDS011;20895;51.034;3.742;2023-11-22T11:51:35;24.52;;;17.83;;
34019;SDS011;20895;51.034;3.742;2023-11-22T11:54:01;20.95;;;15.45;;
34019;SDS011;20895;51.034;3.742;2023-11-22T11:56:26;22.38;;;15.90;;
34019;SDS011;20895;51.034;3.742;2023-11-22T11:58:55;23.27;;;16.92;;
34019;SDS011;20895;51.034;3.742;2023-11-22T12:01:22;20.50;;;15.77;;
34019;SDS011;20895;51.034;3.742;2023-11-22T12:03:48;23.83;;;17.10;;
34019;SDS011;20895;51.034;3.742;2023-11-22T12:06:16;20.17;;;14.52;;
34019;SDS011;20895;51.034;3.742;2023-11-22T12:08:45;24.60;;;17.15;;
34019;SDS011;20895;51.034;3.742;2023-11-22T12:11:12;22.67;;;16.95;;
34019;SDS011;20895;51.034;3.742;2023-11-22T12:13:37;22.65;;;15.63;;
34019;SDS011;20895;51.034;3.742;2023-11-22T12:16:04;24.02;;;16.58;;
34019;SDS011;20895;51.034;3.742;2023-11-22T12:18:38;22.80;;;18.02;;
34019;SDS011;20895;51.034;3.742;2023-11-22T12:21:04;22.73;;;17.60;;
34019;SDS011;20895;51.034;3.742;2023-11-22T12:23:30;24.30;;;17.35;;
34019;SDS011;20895;51.034;3.742;2023-11-22T12:25:56;26.77;;;17.58;;
34019;SDS011;20895;51.034;3.742;2023-11-22T12:28:26;25.48;;;18.27;;
34019;SDS011;20895;51.034;3.742;2023-11-22T12:30:51;23.10;;;18.50;;
34019;SDS011;20895;51.034;3.742;2023-11-22T12:33:17;25.15;;;17.13;;
34019;SDS011;20895;51.034;3.742;2023-11-22T12:35:44;20.52;;;16.15;;
34019;SDS011;20895;51.034;3.742;2023-11-22T12:38:09;23.25;;;18.67;;
34019;SDS011;20895;51.034;3.742;2023-11-22T12:40:35;21.70;;;17.30;;
34019;SDS011;20895;51.034;3.742;2023-11-22T12:43:01;25.60;;;18.25;;
34019;SDS011;20895;51.034;3.742;2023-11-22T12:45:27;24.95;;;17.90;;
34019;SDS011;20895;51.034;3.742;2023-11-22T12:47:53;21.70;;;15.52;;
34019;SDS011;20895;51.034;3.742;2023-11-22T12:50:35;21.73;;;16.42;;
34019;SDS011;20895;51.034;3.742;2023-11-22T12:53:09;18.58;;;15.30;;
34019;SDS011;20895;51.034;3.742;2023-11-22T12:55:36;21.85;;;14.75;;
34019;SDS011;20895;51.034;3.742;2023-11-22T12:58:01;24.17;;;18.25;;
34019;SDS011;20895;51.034;3.742;2023-11-22T13:00:28;19.33;;;15.63;;
34019;SDS011;20895;51.034;3.742;2023-11-22T13:02:55;19.08;;;16.27;;
34019;SDS011;20895;51.034;3.742;2023-11-22T13:05:20;22.92;;;16.85;;
34019;SDS011;20895;51.034;3.742;2023-11-22T13:07:46;20.60;;;16.90;;
34019;SDS011;20895;51.034;3.742;2023-11-22T13:10:12;19.15;;;15.98;;
34019;SDS011;20895;51.034;3.742;2023-11-22T13:12:37;22.48;;;17.48;;
34019;SDS011;20895;51.034;3.742;2023-11-22T13:15:02;23.75;;;18.33;;
34019;SDS011;20895;51.034;3.742;2023-11-22T13:17:29;21.58;;;16.38;;
34019;SDS011;20895;51.034;3.742;2023-11-22T13:19:54;24.40;;;16.30;;
34019;SDS011;20895;51.034;3.742;2023-11-22T13:22:19;22.27;;;16.60;;
34019;SDS011;20895;51.034;3.742;2023-11-22T13:24:45;19.02;;;15.48;;
34019;SDS011;20895;51.034;3.742;2023-11-22T13:27:11;22.17;;;16.67;;
34019;SDS011;20895;51.034;3.742;2023-11-22T13:29:36;22.35;;;16.52;;
34019;SDS011;20895;51.034;3.742;2023-11-22T13:32:02;22.92;;;17.38;;
34019;SDS011;20895;51.034;3.742;2023-11-22T13:34:27;23.15;;;16.77;;
34019;SDS011;20895;51.034;3.742;2023-11-22T13:36:52;21.75;;;16.95;;
34019;SDS011;20895;51.034;3.742;2023-11-22T13:39:17;23.23;;;17.45;;
34019;SDS011;20895;51.034;3.742;2023-11-22T13:41:43;24.80;;;18.33;;
34019;SDS011;20895;51.034;3.742;2023-11-22T13:44:08;24.80;;;18.10;;
34019;SDS011;20895;51.034;3.742;2023-11-22T13:46:33;23.38;;;17.10;;
34019;SDS011;20895;51.034;3.742;2023-11-22T13:48:58;23.63;;;18.25;;
34019;SDS011;20895;51.034;3.742;2023-11-22T13:51:24;28.20;;;18.63;;
34019;SDS011;20895;51.034;3.742;2023-11-22T13:53:50;23.60;;;16.38;;
34019;SDS011;20895;51.034;3.742;2023-11-22T13:56:18;22.33;;;17.67;;
34019;SDS011;20895;51.034;3.742;2023-11-22T13:58:43;26.20;;;18.33;;
34019;SDS011;20895;51.034;3.742;2023-11-22T14:01:09;20.80;;;16.23;;
34019;SDS011;20895;51.034;3.742;2023-11-22T14:03:40;22.73;;;16.98;;
34019;SDS011;20895;51.034;3.742;2023-11-22T14:06:05;23.13;;;17.95;;
34019;SDS011;20895;51.034;3.742;2023-11-22T14:08:30;24.90;;;16.98;;
34019;SDS011;20895;51.034;3.742;2023-11-22T14:10:56;23.33;;;17.45;;
34019;SDS011;20895;51.034;3.742;2023-11-22T14:13:21;22.65;;;16.70;;
34019;SDS011;20895;51.034;3.742;2023-11-22T14:15:47;23.40;;;17.65;;
34019;SDS011;20895;51.034;3.742;2023-11-22T14:18:12;25.73;;;18.25;;